Metar (rayon 200 km actualisée toutes les 30 minutes)






LFBU - Brie/Champniers, France
Distance de la station: SSE 07km
Mise à jour: 03/07/2015 06:30
Pas à jour
Orage
Orage
 Wind from NNE
Vent: NNE 20 km/h
Température: 20°C
Point de Rosée: 18°C
Humidité: 88%
Baromètre: 1020 hPa
Nuages: Orage
Visibilité: 10 km
2015/07/03 04:30 LFBU 030430Z AUTO 03011KT 9999 ///CB 20/18 Q1020
LFBG - Cognac/Chateaubernard, France
Distance de la station: OSO 35km
Mise à jour: 03/07/2015 19:00
clair
clair
 Wind from SSE
Vent: SSE 11 km/h
Température: 34°C
Point de Rosée: 18°C
Humidité: 39%
Baromètre: 1016 hPa
Récapitulatifs: clair
Visibilité: supérieure à 10 km
2015/07/03 17:00 LFBG 031700Z AUTO 16006KT 130V190 CAVOK 34/18 Q1016
 
LFBL - Limoges/Bellegarde, France
Distance de la station: E 82km
Mise à jour: 03/07/2015 19:00
clair
clair
 Wind from SSO
Vent: SSO 15 km/h
Température: 34°C
Point de Rosée: 12°C
Humidité: 26%
Baromètre: 1018 hPa
Récapitulatifs: clair
Visibilité: supérieure à 10 km
2015/07/03 17:00 LFBL 031700Z AUTO 20008KT CAVOK 34/12 Q1018
LFBI - Poitiers/France
Distance de la station: N 93km
Mise à jour: 03/07/2015 19:00
clair
clair
 Wind from SSO
Vent: SSO 15 km/h
Température: 33°C
Point de Rosée: 14°C
Humidité: 32%
Baromètre: 1016 hPa
Récapitulatifs: clair
Visibilité: supérieure à 10 km
2015/07/03 17:00 LFBI 031700Z AUTO 20008KT CAVOK 33/14 Q1016
 
LFBH - La Rochelle/France
Distance de la station: ONO 106km
Mise à jour: 03/07/2015 19:00
clair
clair
 Wind from S
Vent: S 17 km/h
Température: 33°C
Point de Rosée: 14°C
Humidité: 32%
Baromètre: 1015 hPa
Récapitulatifs: clair
Visibilité: supérieure à 10 km
2015/07/03 17:00 LFBH 031700Z AUTO 19009KT 160V220 CAVOK 33/14 Q1015
LFBE - Bergerac/France
Distance de la station: SSE 107km
Mise à jour: 03/07/2015 19:00
clair
clair
 Wind from variable
Vent: variable 4 km/h
Température: 36°C
Point de Rosée: 18°C
Humidité: 34%
Baromètre: 1015 hPa
Récapitulatifs: clair
Visibilité: supérieure à 10 km
2015/07/03 17:00 LFBE 031700Z AUTO VRB02KT CAVOK 36/18 Q1015
 
LFBD - Bordeaux/France
Distance de la station: SSO 121km
Mise à jour: 03/07/2015 19:00
clair
clair
 Wind from ESE
Vent: ESE 15 km/h
Température: 36°C
Point de Rosée: 17°C
Humidité: 32%
Baromètre: 1015 hPa
Récapitulatifs: clair
Visibilité: supérieure à 10 km
2015/07/03 17:00 LFBD 031700Z AUTO 12008KT 100V170 CAVOK 36/17 Q1015
LFRI - La Roche-sur-Yon/France
Distance de la station: NO 156km
Mise à jour: 03/07/2015 19:00
clair
clair
 Wind from S
Vent: S 20 km/h
Température: 31°C
Point de Rosée: 15°C
Humidité: 38%
Baromètre: 1016 hPa
Récapitulatifs: clair
Visibilité: supérieure à 10 km
2015/07/03 17:00 LFRI 031700Z AUTO 19011KT 170V230 CAVOK 31/15 Q1016
 
LFBC - Cazaux/France
Distance de la station: SO 167km
Mise à jour: 03/07/2015 19:00
clair
clair
 Wind from OSO
Vent: OSO 6 km/h
Température: 38°C
Point de Rosée: 15°C
Humidité: 25%
Baromètre: 1014 hPa
Récapitulatifs: clair
Visibilité: supérieure à 10 km
2015/07/03 17:00 LFBC 031700Z AUTO 25003KT 190V290 CAVOK 38/15 Q1014
LFLX - Chateauroux/France
Distance de la station: NE 174km
Mise à jour: 03/07/2015 19:00
clair
clair
 Wind from SO
Vent: SO 20 km/h
Température: 37°C
Point de Rosée: 12°C
Humidité: 22%
Baromètre: 1016 hPa
Récapitulatifs: clair
Visibilité: supérieure à 10 km
2015/07/03 17:00 LFLX 031700Z AUTO 23011KT CAVOK 37/12 Q1016
 
LFBA - Agen/France
Distance de la station: SSE 179km
Mise à jour: 03/07/2015 19:00
clair
clair
 Wind from E
Vent: E 17 km/h
Température: 37°C
Point de Rosée: 16°C
Humidité: 29%
Baromètre: 1015 hPa
Récapitulatifs: clair
Visibilité: supérieure à 10 km
2015/07/03 17:00 LFBA 031700Z AUTO 10009KT CAVOK 37/16 Q1015